createdAt,value
2022-12-15T00:01:42.455Z,-2.70
2022-12-15T00:04:27.621Z,-2.70
2022-12-15T00:07:12.942Z,-2.70
2022-12-15T00:09:58.319Z,-2.70
2022-12-15T00:12:43.542Z,-2.70
2022-12-15T00:15:28.959Z,-2.60
2022-12-15T00:18:14.162Z,-2.60
2022-12-15T00:20:59.315Z,-2.60
2022-12-15T00:23:44.376Z,-2.60
2022-12-15T00:26:29.415Z,-2.60
2022-12-15T00:29:14.737Z,-2.50
2022-12-15T00:32:00.195Z,-2.60
2022-12-15T00:34:45.595Z,-2.60
2022-12-15T00:37:30.932Z,-2.50
2022-12-15T00:40:04.251Z,-2.60
2022-12-15T00:42:32.208Z,-2.50
2022-12-15T00:44:58.998Z,-2.50
2022-12-15T00:47:25.850Z,-2.50
2022-12-15T00:50:11.248Z,-2.60
2022-12-15T00:52:56.385Z,-2.60
2022-12-15T00:55:41.764Z,-2.50
2022-12-15T00:58:27.126Z,-2.50
2022-12-15T01:01:12.619Z,-2.50
2022-12-15T01:03:57.774Z,-2.50
2022-12-15T01:06:43.212Z,-2.50
2022-12-15T01:09:29.387Z,-2.50
2022-12-15T01:12:14.723Z,-2.50
2022-12-15T01:15:00.215Z,-2.50
2022-12-15T01:17:45.537Z,-2.60
2022-12-15T01:20:21.029Z,-2.50
2022-12-15T01:22:52.902Z,-2.60
2022-12-15T01:25:20.800Z,-2.60
2022-12-15T01:27:47.452Z,-2.60
2022-12-15T01:30:15.610Z,-2.60
2022-12-15T01:32:45.968Z,-2.60
2022-12-15T01:35:13.412Z,-2.50
2022-12-15T01:37:40.163Z,-2.50
2022-12-15T01:40:26.378Z,-2.50
2022-12-15T01:42:53.259Z,-2.60
2022-12-15T01:45:29.126Z,-2.60
2022-12-15T01:47:58.079Z,-2.60
2022-12-15T01:50:25.599Z,-2.50
2022-12-15T01:52:53.865Z,-2.60
2022-12-15T01:55:21.402Z,-2.50
2022-12-15T01:57:48.511Z,-2.50
2022-12-15T02:00:15.234Z,-2.50
2022-12-15T02:02:42.101Z,-2.50
2022-12-15T02:05:09.568Z,-2.40
2022-12-15T02:07:36.197Z,-2.40
2022-12-15T02:10:04.137Z,-2.40
2022-12-15T02:12:38.157Z,-2.40
2022-12-15T02:15:11.016Z,-2.40
2022-12-15T02:17:49.899Z,-2.50
2022-12-15T02:20:35.354Z,-2.50
2022-12-15T02:23:13.209Z,-2.50
2022-12-15T02:25:45.779Z,-2.50
2022-12-15T02:28:28.757Z,-2.60
2022-12-15T02:31:25.187Z,-2.50
2022-12-15T02:34:00.106Z,-2.50
2022-12-15T02:36:34.975Z,-2.60
2022-12-15T02:39:01.593Z,-2.60
2022-12-15T02:41:32.472Z,-2.50
2022-12-15T02:43:59.508Z,-2.50
2022-12-15T02:46:35.359Z,-2.50
2022-12-15T02:49:18.200Z,-2.60
2022-12-15T02:51:53.795Z,-2.50
2022-12-15T02:54:31.545Z,-2.60
2022-12-15T02:57:13.465Z,-2.50
2022-12-15T03:00:00.295Z,-2.50
2022-12-15T03:02:28.893Z,-2.50
2022-12-15T03:04:56.095Z,-2.50
2022-12-15T03:07:23.391Z,-2.50
2022-12-15T03:09:50.027Z,-2.50
2022-12-15T03:12:16.647Z,-2.50
2022-12-15T03:14:43.282Z,-2.50
2022-12-15T03:17:11.701Z,-2.50
2022-12-15T03:19:38.362Z,-2.60
2022-12-15T03:22:05.011Z,-2.60
2022-12-15T03:24:31.645Z,-2.60
2022-12-15T03:26:58.287Z,-2.50
2022-12-15T03:29:25.019Z,-2.50
2022-12-15T03:31:51.658Z,-1.00
2022-12-15T03:34:18.322Z,-2.50
2022-12-15T03:36:44.965Z,-2.50
2022-12-15T03:39:11.646Z,-2.50
2022-12-15T03:41:38.328Z,-2.50
2022-12-15T03:44:04.987Z,-2.50
2022-12-15T03:46:31.663Z,-1.00
2022-12-15T03:48:58.736Z,-2.50
2022-12-15T03:51:25.765Z,-2.50
2022-12-15T03:53:52.748Z,-2.50
2022-12-15T03:56:19.508Z,-2.50
2022-12-15T03:58:47.007Z,-2.50
2022-12-15T04:01:34.056Z,-2.50
2022-12-15T04:04:01.729Z,-2.50
2022-12-15T04:06:28.987Z,-2.50
2022-12-15T04:08:55.631Z,-2.50
2022-12-15T04:11:22.264Z,-1.00
2022-12-15T04:13:48.894Z,-2.40
2022-12-15T04:16:19.719Z,-2.50
2022-12-15T04:18:46.644Z,-2.50
2022-12-15T04:21:13.324Z,-2.50
2022-12-15T04:23:40.026Z,-2.40
2022-12-15T04:26:25.396Z,-2.40
2022-12-15T04:29:10.740Z,-2.50
2022-12-15T04:31:56.255Z,-2.50
2022-12-15T04:34:42.681Z,-2.50
2022-12-15T04:37:30.392Z,-2.50
2022-12-15T04:40:15.768Z,-2.50
2022-12-15T04:43:04.134Z,-2.50
2022-12-15T04:45:49.552Z,-2.50
2022-12-15T04:48:34.623Z,-2.50
2022-12-15T04:51:20.059Z,-2.50
2022-12-15T04:54:05.424Z,-2.50
2022-12-15T04:56:50.867Z,-2.50
2022-12-15T04:59:36.228Z,-2.50
2022-12-15T05:02:21.631Z,-2.50
2022-12-15T05:05:06.937Z,-0.90
2022-12-15T05:07:52.051Z,-2.50
2022-12-15T05:10:37.502Z,-2.50
2022-12-15T05:13:26.321Z,0.00
2022-12-15T05:16:11.600Z,-2.50
2022-12-15T05:18:57.205Z,-2.40
2022-12-15T05:21:42.279Z,-2.30
2022-12-15T05:24:27.585Z,-2.40
2022-12-15T05:27:13.033Z,-2.40
2022-12-15T05:29:58.448Z,-2.40
2022-12-15T05:32:25.096Z,-2.40
2022-12-15T05:34:51.700Z,-2.40
2022-12-15T05:37:18.330Z,-1.90
2022-12-15T05:39:44.966Z,-2.40
2022-12-15T05:42:11.640Z,-2.40
2022-12-15T05:44:38.295Z,-2.40
2022-12-15T05:47:05.075Z,-2.50
2022-12-15T05:49:31.932Z,-2.40
2022-12-15T05:51:58.979Z,-2.40
2022-12-15T05:54:25.582Z,-2.40
2022-12-15T05:56:52.360Z,-2.40
2022-12-15T05:59:21.972Z,-2.40
2022-12-15T06:01:48.796Z,-2.40
2022-12-15T06:04:15.618Z,-2.40
2022-12-15T06:06:42.516Z,-2.40
2022-12-15T06:09:09.290Z,-2.40
2022-12-15T06:11:37.370Z,-2.40
2022-12-15T06:14:04.003Z,-1.50
2022-12-15T06:16:30.875Z,-2.40
2022-12-15T06:18:58.971Z,-2.40
2022-12-15T06:21:27.347Z,-2.40
2022-12-15T06:23:55.380Z,-2.40
2022-12-15T06:26:23.295Z,-2.40
2022-12-15T06:28:50.263Z,-2.40
2022-12-15T06:31:18.040Z,-2.40
2022-12-15T06:33:44.798Z,-2.50
2022-12-15T06:36:12.716Z,-2.40
2022-12-15T06:38:39.963Z,-2.50
2022-12-15T06:41:07.452Z,-2.50
2022-12-15T06:43:34.527Z,-2.50
2022-12-15T06:46:02.057Z,-2.50
2022-12-15T06:48:29.040Z,-2.50
2022-12-15T06:50:56.136Z,-2.50
2022-12-15T06:53:23.925Z,-2.50
2022-12-15T06:55:50.571Z,-2.50
2022-12-15T06:58:17.160Z,-2.50
2022-12-15T07:00:44.365Z,-2.50
2022-12-15T07:03:13.861Z,-2.60
2022-12-15T07:05:40.756Z,-2.50
2022-12-15T07:08:07.378Z,-2.60
2022-12-15T07:10:34.010Z,-2.60
2022-12-15T07:13:00.651Z,-2.50
2022-12-15T07:15:27.259Z,-2.50
2022-12-15T07:17:54.653Z,-2.50
2022-12-15T07:20:25.527Z,-2.50
2022-12-15T07:22:55.581Z,-2.50
2022-12-15T07:25:22.270Z,-2.50
2022-12-15T07:27:48.949Z,-2.50
2022-12-15T07:30:16.418Z,-2.50
2022-12-15T07:32:44.216Z,-2.40
2022-12-15T07:35:16.936Z,-2.40
2022-12-15T07:37:43.601Z,-2.40
2022-12-15T07:40:10.519Z,-2.30
2022-12-15T07:42:37.208Z,-2.40
2022-12-15T07:45:05.171Z,-1.30
2022-12-15T07:47:32.120Z,-2.30
2022-12-15T07:49:59.109Z,-2.30
2022-12-15T07:52:26.073Z,-2.30
2022-12-15T07:54:52.712Z,-2.30
2022-12-15T07:57:19.545Z,-2.30
2022-12-15T07:59:46.306Z,-2.30
2022-12-15T08:02:13.664Z,-2.30
2022-12-15T08:04:40.493Z,-2.20
2022-12-15T08:07:09.210Z,-2.20
2022-12-15T08:09:36.233Z,-2.20
2022-12-15T08:12:03.355Z,-2.20
2022-12-15T08:14:30.151Z,-0.20
2022-12-15T08:16:56.841Z,-2.10
2022-12-15T08:19:23.527Z,-2.00
2022-12-15T08:21:50.682Z,-2.00
2022-12-15T08:24:17.705Z,-1.90
2022-12-15T08:26:45.130Z,-1.90
2022-12-15T08:29:49.768Z,-1.90
2022-12-15T08:32:05.506Z,-1.90
2022-12-15T08:34:32.183Z,-1.90
2022-12-15T08:36:58.862Z,-1.90
2022-12-15T08:39:25.934Z,-1.90
2022-12-15T08:41:52.490Z,-1.80
2022-12-15T08:44:19.246Z,-1.70
2022-12-15T08:46:45.875Z,-1.60
2022-12-15T08:49:15.388Z,-1.60
2022-12-15T08:51:46.671Z,-1.60
2022-12-15T08:54:17.066Z,-1.60
2022-12-15T08:56:43.779Z,-1.60
2022-12-15T08:59:10.406Z,-1.50
2022-12-15T09:01:40.287Z,-1.50
2022-12-15T09:04:07.321Z,-1.50
2022-12-15T09:06:35.232Z,-1.50
2022-12-15T09:09:02.666Z,-1.60
2022-12-15T09:11:29.962Z,-1.60
2022-12-15T09:13:56.658Z,-1.50
2022-12-15T09:16:23.384Z,-1.50
2022-12-15T09:18:51.580Z,-1.50
2022-12-15T09:21:18.974Z,-1.40
2022-12-15T09:23:51.473Z,-1.40
2022-12-15T09:26:19.038Z,-1.50
2022-12-15T09:28:50.844Z,-1.50
2022-12-15T09:31:23.780Z,-1.30
2022-12-15T09:33:52.212Z,-1.30
2022-12-15T09:36:18.924Z,-1.20
2022-12-15T09:38:45.591Z,-1.20
2022-12-15T09:41:15.243Z,-1.10
2022-12-15T09:43:47.639Z,-1.20
2022-12-15T09:46:30.869Z,-1.10
2022-12-15T09:48:59.354Z,-1.10
2022-12-15T09:51:32.077Z,-1.00
2022-12-15T09:53:59.055Z,-1.00
2022-12-15T09:56:36.359Z,-1.10
2022-12-15T09:59:13.708Z,-1.10
2022-12-15T10:01:47.753Z,-1.10
2022-12-15T10:04:25.476Z,-1.10
2022-12-15T10:06:58.669Z,-1.10
2022-12-15T10:09:28.051Z,-1.10
2022-12-15T10:12:14.355Z,-1.10
2022-12-15T10:14:56.340Z,-1.10
2022-12-15T10:17:24.608Z,-1.10
2022-12-15T10:20:13.237Z,-1.00
2022-12-15T10:22:39.998Z,-1.10
2022-12-15T10:25:29.387Z,-1.10
2022-12-15T10:28:15.147Z,-1.10
2022-12-15T10:30:53.698Z,-1.10
2022-12-15T10:33:23.952Z,-1.00
2022-12-15T10:35:52.872Z,-1.00
2022-12-15T10:38:37.957Z,-1.00
2022-12-15T10:41:06.284Z,-1.00
2022-12-15T10:43:37.759Z,-0.30
2022-12-15T10:46:13.788Z,-1.10
2022-12-15T10:48:44.383Z,-1.10
2022-12-15T10:51:15.543Z,-1.00
2022-12-15T10:54:05.460Z,-1.00
2022-12-15T10:56:34.133Z,-1.00
2022-12-15T10:59:02.763Z,-0.90
2022-12-15T11:01:33.711Z,-0.90
2022-12-15T11:04:00.779Z,-0.90
2022-12-15T11:06:29.238Z,-0.90
2022-12-15T11:08:57.634Z,-0.90
2022-12-15T11:11:47.484Z,-0.90
2022-12-15T11:14:17.082Z,-0.90
2022-12-15T11:16:49.631Z,-0.90
2022-12-15T11:19:26.127Z,-0.90
2022-12-15T11:21:56.297Z,-0.90
2022-12-15T11:24:29.427Z,-0.90
2022-12-15T11:27:06.264Z,-0.80
2022-12-15T11:29:51.824Z,-0.80
2022-12-15T11:32:22.977Z,-0.70
2022-12-15T11:34:49.759Z,-0.70
2022-12-15T11:37:36.797Z,-0.70
2022-12-15T11:40:18.913Z,-0.70
2022-12-15T11:42:51.977Z,-0.70
2022-12-15T11:45:22.821Z,-0.60
2022-12-15T11:47:57.880Z,-0.60
2022-12-15T11:50:43.463Z,-0.60
2022-12-15T11:53:19.697Z,-0.50
2022-12-15T11:56:04.765Z,-0.40
2022-12-15T11:58:50.185Z,-0.40
2022-12-15T12:01:52.632Z,-0.40
2022-12-15T12:04:39.905Z,-0.40
2022-12-15T12:07:18.329Z,-0.30
2022-12-15T12:10:09.486Z,-0.30
2022-12-15T12:12:41.983Z,-0.30
2022-12-15T12:15:27.906Z,-0.30
2022-12-15T12:18:07.184Z,-0.30
2022-12-15T12:20:40.706Z,-0.10
2022-12-15T12:23:19.417Z,0.00
2022-12-15T12:25:51.538Z,0.10
2022-12-15T12:28:22.407Z,0.10
2022-12-15T12:30:50.625Z,0.10
2022-12-15T12:33:56.037Z,0.10
2022-12-15T12:36:22.680Z,0.10
2022-12-15T12:38:51.222Z,0.20
2022-12-15T12:41:21.022Z,0.10
2022-12-15T12:43:52.786Z,0.10
2022-12-15T12:46:23.540Z,0.10
2022-12-15T12:48:50.207Z,0.20
2022-12-15T12:51:22.153Z,0.20
2022-12-15T12:53:50.283Z,0.30
2022-12-15T12:56:30.801Z,0.30
2022-12-15T12:58:57.454Z,0.30
2022-12-15T13:01:32.702Z,0.30
2022-12-15T13:04:06.546Z,0.20
2022-12-15T13:06:36.155Z,0.20
2022-12-15T13:09:21.319Z,0.20
2022-12-15T13:11:51.631Z,0.20
2022-12-15T13:14:26.361Z,0.10
2022-12-15T13:17:26.450Z,0.00
2022-12-15T13:19:53.856Z,-0.10
2022-12-15T13:22:29.642Z,-0.10
2022-12-15T13:24:56.562Z,-0.10
2022-12-15T13:27:23.862Z,-0.10
2022-12-15T13:29:55.097Z,-0.10
2022-12-15T13:32:29.179Z,-0.10
2022-12-15T13:34:56.340Z,-0.20
2022-12-15T13:37:45.179Z,-0.20
2022-12-15T13:40:25.750Z,-0.20
2022-12-15T13:43:04.436Z,-0.30
2022-12-15T13:45:34.367Z,-0.30
2022-12-15T13:48:01.415Z,-0.30
2022-12-15T13:50:31.136Z,-0.30
2022-12-15T13:56:03.259Z,-0.30
2022-12-15T13:58:33.015Z,-0.30
2022-12-15T14:00:59.711Z,1.00
2022-12-15T14:03:26.554Z,-0.30
2022-12-15T14:05:54.348Z,-0.40
2022-12-15T14:08:21.985Z,-0.40
2022-12-15T14:10:51.239Z,-0.40
2022-12-15T14:13:18.514Z,-0.40
2022-12-15T14:15:46.311Z,-0.40
2022-12-15T14:18:25.439Z,-0.40
2022-12-15T14:20:52.228Z,-0.60
2022-12-15T14:23:57.754Z,-0.50
2022-12-15T14:26:30.928Z,-0.60
2022-12-15T14:29:02.050Z,-0.60
2022-12-15T14:31:29.225Z,-0.60
2022-12-15T14:34:03.625Z,-0.60
2022-12-15T14:36:31.392Z,-0.60
2022-12-15T14:38:58.863Z,-0.60
2022-12-15T14:41:31.346Z,-0.60
2022-12-15T14:44:36.925Z,-0.70
2022-12-15T14:46:48.180Z,-0.70
2022-12-15T14:49:28.664Z,-0.70
2022-12-15T14:52:02.970Z,-0.80
2022-12-15T14:54:35.594Z,-0.80
2022-12-15T14:57:16.153Z,-0.80
2022-12-15T14:59:44.754Z,-0.80
2022-12-15T15:02:12.579Z,-0.80
2022-12-15T15:04:39.651Z,-0.80
2022-12-15T15:07:07.110Z,-0.80
2022-12-15T15:09:39.024Z,-0.80
2022-12-15T15:12:13.686Z,-0.80
2022-12-15T15:14:42.192Z,-0.80
2022-12-15T15:17:30.903Z,-0.80
2022-12-15T15:19:59.875Z,-0.80
2022-12-15T15:22:35.635Z,-0.80
2022-12-15T15:25:02.815Z,-0.80
2022-12-15T15:27:35.366Z,-0.80
2022-12-15T15:30:16.417Z,-0.80
2022-12-15T15:32:53.480Z,-0.80
2022-12-15T15:35:20.765Z,-0.90
2022-12-15T15:37:47.532Z,-0.90
2022-12-15T15:40:15.991Z,-0.90
2022-12-15T15:42:45.400Z,-0.90
2022-12-15T15:45:16.073Z,-0.90
2022-12-15T15:47:45.452Z,-1.00
2022-12-15T15:50:13.726Z,-1.00
2022-12-15T15:52:40.686Z,-1.00
2022-12-15T15:55:10.320Z,-1.10
2022-12-15T15:57:36.934Z,-1.10
2022-12-15T16:00:08.195Z,-1.10
2022-12-15T16:02:34.967Z,-1.10
2022-12-15T16:05:01.736Z,-1.20
2022-12-15T16:07:28.778Z,-1.10
2022-12-15T16:09:55.752Z,-1.20
2022-12-15T16:12:30.145Z,-1.20
2022-12-15T16:14:56.784Z,-1.20
2022-12-15T16:17:23.584Z,-1.20
2022-12-15T16:19:50.240Z,-1.20
2022-12-15T16:22:18.467Z,-1.20
2022-12-15T16:24:46.084Z,-1.20
2022-12-15T16:27:13.324Z,-1.20
2022-12-15T16:29:39.970Z,-1.20
2022-12-15T16:32:07.241Z,-1.20
2022-12-15T16:34:33.801Z,-1.20
2022-12-15T16:37:00.421Z,-1.20
2022-12-15T16:39:28.277Z,-1.20
2022-12-15T16:41:55.474Z,-1.20
2022-12-15T16:44:22.403Z,-1.20
2022-12-15T16:46:49.040Z,-1.10
2022-12-15T16:49:15.695Z,-1.20
2022-12-15T16:51:43.560Z,-1.20
2022-12-15T16:54:15.557Z,-1.20
2022-12-15T16:56:42.649Z,-1.20
2022-12-15T16:59:32.422Z,-1.20
2022-12-15T17:02:00.648Z,-1.20
2022-12-15T17:04:27.514Z,-1.20
2022-12-15T17:06:54.260Z,-1.20
2022-12-15T17:09:22.773Z,-1.10
2022-12-15T17:11:49.852Z,-1.10
2022-12-15T17:14:16.511Z,-0.70
2022-12-15T17:16:43.299Z,-1.10
2022-12-15T17:19:09.900Z,-1.10
2022-12-15T17:21:42.033Z,-1.10
2022-12-15T17:24:11.846Z,-1.10
2022-12-15T17:26:38.474Z,-1.10
2022-12-15T17:29:13.051Z,-1.10
2022-12-15T17:31:39.796Z,-1.10
2022-12-15T17:34:23.107Z,-1.10
2022-12-15T17:36:49.789Z,-1.10
2022-12-15T17:39:18.096Z,-1.10
2022-12-15T17:42:01.824Z,-1.10
2022-12-15T17:44:33.603Z,-1.10
2022-12-15T17:47:01.885Z,-1.10
2022-12-15T17:49:34.664Z,-1.10
2022-12-15T17:52:03.121Z,-0.60
2022-12-15T17:54:29.823Z,-1.00
2022-12-15T17:56:56.457Z,-1.00
2022-12-15T17:59:23.032Z,-1.00
2022-12-15T18:01:49.816Z,-1.10
2022-12-15T18:04:16.539Z,-1.00
2022-12-15T18:06:44.087Z,-1.10
2022-12-15T18:09:20.862Z,-1.10
2022-12-15T18:11:47.564Z,-1.00
2022-12-15T18:14:15.295Z,-1.00
2022-12-15T18:16:42.271Z,-1.00
2022-12-15T18:19:08.960Z,-0.90
2022-12-15T18:21:35.702Z,-0.90
2022-12-15T18:24:02.459Z,-0.90
2022-12-15T18:26:29.222Z,-0.90
2022-12-15T18:28:55.777Z,-0.90
2022-12-15T18:31:25.830Z,-1.00
2022-12-15T18:33:53.105Z,-1.00
2022-12-15T18:36:20.198Z,-1.00
2022-12-15T18:38:46.854Z,-1.00
2022-12-15T18:41:15.036Z,-1.00
2022-12-15T18:43:42.564Z,-1.00
2022-12-15T18:46:14.738Z,-1.00
2022-12-15T18:48:41.978Z,-1.10
2022-12-15T18:51:15.618Z,-1.10
2022-12-15T18:53:42.530Z,-1.10
2022-12-15T18:56:10.521Z,-1.10
2022-12-15T18:58:38.035Z,-1.10
2022-12-15T19:01:05.354Z,-1.10
2022-12-15T19:03:32.874Z,0.60
2022-12-15T19:06:01.825Z,-1.10
2022-12-15T19:08:31.046Z,-1.10
2022-12-15T19:11:01.669Z,-1.20
2022-12-15T19:13:31.479Z,-1.20
2022-12-15T19:15:58.671Z,-1.20
2022-12-15T19:18:44.097Z,-1.20
2022-12-15T19:21:28.754Z,-1.20
2022-12-15T19:23:55.336Z,-1.30
2022-12-15T19:26:21.918Z,-1.20
2022-12-15T19:28:48.700Z,-1.20
2022-12-15T19:31:15.304Z,-1.20
2022-12-15T19:33:41.964Z,-1.20
2022-12-15T19:36:25.525Z,-1.30
2022-12-15T19:38:54.710Z,-1.30
2022-12-15T19:41:21.454Z,-1.30
2022-12-15T19:43:48.032Z,-1.30
2022-12-15T19:46:17.098Z,-1.30
2022-12-15T19:48:43.771Z,-1.30
2022-12-15T19:51:12.597Z,-1.30
2022-12-15T19:53:40.695Z,-1.40
2022-12-15T19:56:07.643Z,-1.30
2022-12-15T19:58:35.039Z,-1.40
2022-12-15T20:01:04.186Z,-1.40
2022-12-15T20:03:31.778Z,-1.40
2022-12-15T20:05:59.634Z,-1.40
2022-12-15T20:08:32.815Z,-1.50
2022-12-15T20:10:59.783Z,-1.50
2022-12-15T20:13:26.566Z,-1.50
2022-12-15T20:15:54.040Z,-1.50
2022-12-15T20:18:20.636Z,-1.50
2022-12-15T20:20:48.529Z,-1.50
2022-12-15T20:23:20.727Z,-1.50
2022-12-15T20:25:47.349Z,-1.50
2022-12-15T20:28:19.467Z,-1.60
2022-12-15T20:30:46.584Z,-1.60
2022-12-15T20:33:13.643Z,-1.60
2022-12-15T20:35:40.498Z,-1.60
2022-12-15T20:38:18.862Z,-1.60
2022-12-15T20:40:45.475Z,-1.70
2022-12-15T20:43:14.653Z,-1.70
2022-12-15T20:45:41.495Z,-0.60
2022-12-15T20:48:10.273Z,-1.70
2022-12-15T20:50:40.939Z,-1.80
2022-12-15T20:53:18.214Z,-1.80
2022-12-15T20:55:45.195Z,-1.90
2022-12-15T20:58:11.882Z,-1.90
2022-12-15T21:00:39.115Z,-2.00
2022-12-15T21:03:20.165Z,-2.00
2022-12-15T21:05:47.206Z,-2.00
2022-12-15T21:08:18.360Z,-2.00
2022-12-15T21:10:45.352Z,-2.10
2022-12-15T21:13:14.040Z,-2.00
2022-12-15T21:15:40.662Z,-2.00
2022-12-15T21:18:51.930Z,-2.10
2022-12-15T21:21:01.265Z,-2.10
2022-12-15T21:23:29.970Z,-2.10
2022-12-15T21:25:57.998Z,-2.20
2022-12-15T21:28:25.164Z,-2.10
2022-12-15T21:30:51.940Z,-2.20
2022-12-15T21:33:18.734Z,-2.20
2022-12-15T21:35:46.113Z,-2.20
2022-12-15T21:38:25.162Z,-2.20
2022-12-15T21:40:57.679Z,-2.20
2022-12-15T21:43:27.757Z,-2.20
2022-12-15T21:45:54.413Z,-2.20
2022-12-15T21:48:40.298Z,-2.20
2022-12-15T21:51:10.365Z,-2.10
2022-12-15T21:53:36.962Z,-2.20
2022-12-15T21:56:03.597Z,-2.10
2022-12-15T21:58:30.620Z,-2.20
2022-12-15T22:00:59.178Z,-2.10
2022-12-15T22:03:25.946Z,-2.10
2022-12-15T22:05:52.565Z,-2.10
2022-12-15T22:08:20.079Z,-2.10
2022-12-15T22:10:47.327Z,-2.20
2022-12-15T22:13:15.993Z,-2.20
2022-12-15T22:15:42.735Z,-2.20
2022-12-15T22:18:11.816Z,-2.30
2022-12-15T22:20:38.453Z,-2.30
2022-12-15T22:23:04.990Z,-2.30
2022-12-15T22:25:31.600Z,-2.40
2022-12-15T22:27:58.192Z,-2.40
2022-12-15T22:30:26.012Z,-2.40
2022-12-15T22:32:52.967Z,-2.40
2022-12-15T22:35:21.980Z,-2.50
2022-12-15T22:37:53.343Z,-2.50
2022-12-15T22:40:21.016Z,-2.50
2022-12-15T22:42:50.339Z,-2.50
2022-12-15T22:45:19.817Z,-2.50
2022-12-15T22:47:47.260Z,-2.50
2022-12-15T22:50:15.470Z,-2.50
2022-12-15T22:52:42.137Z,-2.50
2022-12-15T22:55:12.568Z,-2.50
2022-12-15T22:57:39.213Z,-2.50
2022-12-15T23:00:08.092Z,-2.50
2022-12-15T23:02:36.797Z,-2.50
2022-12-15T23:05:04.378Z,-2.50
2022-12-15T23:07:31.248Z,-1.30
2022-12-15T23:10:16.538Z,-2.60
2022-12-15T23:12:43.190Z,-2.60
2022-12-15T23:15:28.629Z,-2.60
2022-12-15T23:17:55.198Z,-2.60
2022-12-15T23:20:21.825Z,-2.70
2022-12-15T23:22:48.446Z,-2.60
2022-12-15T23:25:16.146Z,-2.70
2022-12-15T23:27:42.738Z,-1.40
2022-12-15T23:30:09.517Z,-2.70
2022-12-15T23:32:38.667Z,-2.70
2022-12-15T23:35:05.943Z,-2.70
2022-12-15T23:37:32.599Z,-2.80
2022-12-15T23:39:59.145Z,-2.70
2022-12-15T23:42:25.778Z,-2.70
2022-12-15T23:44:52.418Z,-2.70
2022-12-15T23:47:21.566Z,-2.70
2022-12-15T23:49:48.214Z,-2.70
2022-12-15T23:52:14.840Z,-2.70
2022-12-15T23:54:41.462Z,-2.70
2022-12-15T23:57:08.019Z,-2.70
2022-12-15T23:59:34.777Z,-2.80
